WetterOnline ( https://www.wetteronline.de )

Wetter aktuell Görlitz

Aktuelles Wetter: Görlitz (240m)

6-stündlich | Neueste Meldungen
Ortszeit Temperatur Wetter
Do, 18.04. 2:00 1.6° C leicht bewölkt
Mi, 17.04. 20:00 6.4° C bewölkt
Mi, 17.04. 14:00 7.6° C bedeckt
Mi, 17.04. 8:00 3.3° C bewölkt
Mi, 17.04. 2:00 5.1° C bedeckt
Di, 16.04. 20:00 6.9° C bedeckt
Di, 16.04. 14:00 9.7° C wolkig
Di, 16.04. 8:00 6.1° C bedeckt
Ortszeit Temperatur Wetter
Do, 18.04. 2:00 1.6° C leicht bewölkt
Do, 18.04. 1:50 1.6° C leicht bewölkt
Do, 18.04. 1:40 2.0° C bewölkt
Do, 18.04. 1:30 2.0° C bewölkt
Do, 18.04. 1:20 2.0° C bewölkt
Do, 18.04. 1:10 2.8° C bewölkt
Do, 18.04. 1:00 2.5° C bewölkt
Do, 18.04. 0:30 2.7° C bewölkt
Do, 18.04. 0:00 3.0° C wolkig
Mi, 17.04. 23:30 2.9° C bewölkt
Mi, 17.04. 23:00 3.7° C wolkig
Ortszeit Relative Feuchte Sichtweite
Do, 18.04. 2:00 92% 27 km
Mi, 17.04. 20:00 75% >70 km
Mi, 17.04. 14:00 65% 65 km
Mi, 17.04. 8:00 84% 40 km
Mi, 17.04. 2:00 91% 45 km
Di, 16.04. 20:00 75% >70 km
Di, 16.04. 14:00 47% >70 km
Di, 16.04. 8:00 65% >70 km
Ortszeit Relative Feuchte Sichtweite
Do, 18.04. 2:00 92% 27 km
Do, 18.04. 1:50 92% -
Do, 18.04. 1:40 95% -
Do, 18.04. 1:30 90% 35 km
Do, 18.04. 1:20 90% -
Do, 18.04. 1:10 87% -
Do, 18.04. 1:00 92% 40 km
Do, 18.04. 0:30 92% 30 km
Do, 18.04. 0:00 92% 30 km
Mi, 17.04. 23:30 92% 30 km
Mi, 17.04. 23:00 87% 45 km
Ortszeit Niederschlagsmenge Niederschlagsart
Do, 18.04. 2:00 0.1 l/m2 in 6 Std. Regen
Mi, 17.04. 20:00 0.4 l/m2 in 12 Std. Regen
Mi, 17.04. 14:00 0.1 l/m2 in 6 Std. Sprühregen
Mi, 17.04. 8:00 0.1 l/m2 in 12 Std. Sprühregen
Mi, 17.04. 2:00 0.1 l/m2 in 6 Std. Regen
Di, 16.04. 20:00 0.3 l/m2 in 12 Std. Regen
Di, 16.04. 14:00 0.0 l/m2 in 6 Std. -
Di, 16.04. 8:00 0.3 l/m2 in 12 Std. Regen
Ortszeit Niederschlagsmenge Niederschlagsart
Do, 18.04. 2:00 0.0 l/m2 in 1 Std. Regen
Do, 18.04. 1:50 keine Meldung -
Do, 18.04. 1:40 keine Meldung -
Do, 18.04. 1:30 0.0 l/m2 in 30 Min -
Do, 18.04. 1:20 keine Meldung -
Do, 18.04. 1:10 keine Meldung -
Do, 18.04. 1:00 0.0 l/m2 in 1 Std. -
Do, 18.04. 0:30 0.0 l/m2 in 30 Min -
Do, 18.04. 0:00 0.0 l/m2 in 1 Std. -
Mi, 17.04. 23:30 0.0 l/m2 in 30 Min -
Mi, 17.04. 23:00 0.0 l/m2 in 1 Std. Regen
Ortszeit Stärke Spitze Richtung
km/h Bft. km/h Grad Sektor
Do, 18.04. 2:00 7 2 14 210° SW
Mi, 17.04. 20:00 9 2 24 50° NO
Mi, 17.04. 14:00 14 3 32 360° N
Mi, 17.04. 8:00 13 3 31 300° NW
Mi, 17.04. 2:00 9 2 28 300° NW
Di, 16.04. 20:00 18 3 72 230° SW
Di, 16.04. 14:00 26 4 50 250° W
Di, 16.04. 8:00 22 4 54 250° W
Ortszeit Stärke Spitze Richtung
km/h Bft. km/h Grad Sektor
Do, 18.04. 2:00 7 2 11 210° SW
Do, 18.04. 1:50 7 2 - 210° SW
Do, 18.04. 1:40 4 1 - 230° SW
Do, 18.04. 1:30 7 2 11 240° SW
Do, 18.04. 1:20 7 2 - 240° SW
Do, 18.04. 1:10 7 2 - 260° W
Do, 18.04. 1:00 6 1 9 230° SW
Do, 18.04. 0:30 7 2 7 250° W
Do, 18.04. 0:00 6 1 7 250° W
Mi, 17.04. 23:30 6 1 6 180° S
Mi, 17.04. 23:00 6 1 9 90° O
Ortszeit Untergrenze Bedeckung Gattung
total tief tief mittel hoch
Do, 18.04. 2:00 1260 m 4/8 4/8 - - -
Mi, 17.04. 20:00 1140 m 8/8 6/8 - - -
Mi, 17.04. 14:00 840 m 8/8 8/8 - - -
Mi, 17.04. 8:00 360 m 7/8 7/8 - - -
Mi, 17.04. 2:00 270 m 8/8 8/8 - - -
Di, 16.04. 20:00 1800 m 8/8 8/8 - - -
Di, 16.04. 14:00 1500 m 5/8 5/8 - - -
Di, 16.04. 8:00 1140 m 8/8 8/8 - - -
Ortszeit Bedeckungsgrad in Achtel und Wolkenuntergrenze
Do, 18.04. 2:00 4(1260m)
Do, 18.04. 1:50 4(1260m)
Do, 18.04. 1:40 7
Do, 18.04. 1:30 5(1320m) 6(1800m) 7(7200m)
Do, 18.04. 1:20 5(1320m) 6(1800m) 7(7200m)
Do, 18.04. 1:10 7
Do, 18.04. 1:00 1(1500m) 6(1800m) 8(7200m)
Do, 18.04. 0:30 4(1500m) 5(2400m) 8(7200m)
Do, 18.04. 0:00 3(1800m) 7(7200m)
Mi, 17.04. 23:30 6(1800m) 7(2100m) 7(6900m)
Mi, 17.04. 23:00 2(1470m) 4(1800m) 6(7200m)
Ortszeit Luftdruck NN (hPa) Tendenz (hPa in 3 Std.)
Do, 18.04. 2:00 1011 + 0,5
Mi, 17.04. 20:00 1009 + 0,8
Mi, 17.04. 14:00 1008 + 0,4
Mi, 17.04. 8:00 1007 + 1,8
Mi, 17.04. 2:00 1004 + 1,3
Di, 16.04. 20:00 1002 0,0
Di, 16.04. 14:00 1002 - 0,1
Di, 16.04. 8:00 1003 + 0,9
Ortszeit Luftdruck NN (hPa) Tendenz (hPa in 3 Std.)
Do, 18.04. 2:00 1011 + 0,5
Do, 18.04. 1:50 1011 keine Meldung
Do, 18.04. 1:40 1011 keine Meldung
Do, 18.04. 1:30 1011 + 0,6
Do, 18.04. 1:20 1011 keine Meldung
Do, 18.04. 1:10 1011 keine Meldung
Do, 18.04. 1:00 1011 + 0,7
Do, 18.04. 0:30 1011 + 0,9
Do, 18.04. 0:00 1011 + 0,8
Mi, 17.04. 23:30 1010 + 1,1
Mi, 17.04. 23:00 1010 + 1,3
Ortszeit Schneehöhe (cm)
Do, 18.04. 2:00 0
Mi, 17.04. 20:00 0
Mi, 17.04. 14:00 0
Mi, 17.04. 8:00 0
Mi, 17.04. 2:00 0
Di, 16.04. 20:00 0
Di, 16.04. 14:00 0
Di, 16.04. 8:00 0
Ortszeit Schneehöhe (cm)
Do, 18.04. 2:00 0
Do, 18.04. 1:50 0
Do, 18.04. 1:40 -
Do, 18.04. 1:30 0
Do, 18.04. 1:20 0
Do, 18.04. 1:10 -
Do, 18.04. 1:00 0
Do, 18.04. 0:30 0
Do, 18.04. 0:00 0
Mi, 17.04. 23:30 0
Mi, 17.04. 23:00 0
Link zu dieser Seite / Seite empfehlen

Das Wetter in ...